Linn Grove, Indiana
Current Conditions -  °F | °C
As of 10:54 PM on Saturday 24 Jan 2015 (Local Time) from KFWA Reporting Station
Overcast Overcast  
Wind Chill: 29°   Ceiling: 2900
Heat Index: 35°   Visibility: 10mi
Dew Point: 33°   Wind: 8mph
Humidity: 92%   Direction: 220°SW
Pressure: 29.7"   Gusts: NA
Location:  40.64°N, 85.03°W
Report Text: KFWA 250354Z 22007KT 10SM FEW018 OVC029 02/01 A2970 RMK AO2 SLP064 T00170006
Loading
Personal Weather Stations






























Interactive Weather Map New forecast layout! Learn more

10-Day Weather Forecast

Advertisements
Track Severe Weather on mobile